Essex Center, Vermont
Current Conditions -  °F | °C
As of 11:54 PM on Thursday 30 Oct 2014 (Local Time) from KBTV Reporting Station
Overcast Overcast  
Wind Chill: 42°   Ceiling: 4000
Heat Index: 44°   Visibility: 10mi
Dew Point: 33°   Wind: 5mph
Humidity: 65%   Direction: 10°N
Pressure: 30.01"   Gusts: NA
Location:  44.5358°N, 73.0548°W
Report Text: KBTV 310354Z 01004KT 10SM SCT027 OVC040 07/01 A3001 RMK AO2 SLP165 T00670006
Loading
Personal Weather Stations






























Interactive Weather Map
Tropical Storm Tracking
New forecast layout! Learn more

10-Day Weather Forecast

Advertisements
Track Severe Weather on mobile